createdAt,value
2023-01-27T00:00:39.483Z,97495.00
2023-01-27T00:03:06.998Z,97471.16
2023-01-27T00:05:34.245Z,97456.34
2023-01-27T00:08:01.169Z,97449.47
2023-01-27T00:10:28.166Z,97459.41
2023-01-27T00:13:13.805Z,97470.78
2023-01-27T00:15:40.855Z,97478.66
2023-01-27T00:18:08.705Z,97454.56
2023-01-27T00:20:54.313Z,97462.81
2023-01-27T00:23:41.815Z,97473.53
2023-01-27T00:26:16.796Z,97444.69
2023-01-27T00:28:45.370Z,97441.28
2023-01-27T00:31:33.380Z,97453.28
2023-01-27T00:34:09.407Z,97467.66
2023-01-27T00:36:42.055Z,97456.69
2023-01-27T00:39:10.839Z,97452.03
2023-01-27T00:41:39.109Z,97441.38
2023-01-27T00:44:07.452Z,97437.72
2023-01-27T00:46:34.901Z,97449.09
2023-01-27T00:49:01.879Z,97442.69
2023-01-27T00:51:28.784Z,97451.41
2023-01-27T00:53:55.865Z,97439.31
2023-01-27T00:56:22.864Z,97436.06
2023-01-27T00:58:49.820Z,97438.38
2023-01-27T01:01:17.595Z,97427.53
2023-01-27T01:03:46.014Z,97430.53
2023-01-27T01:06:15.479Z,97436.13
2023-01-27T01:08:43.514Z,97438.78
2023-01-27T01:11:14.181Z,97438.00
2023-01-27T01:13:42.496Z,97440.84
2023-01-27T01:16:12.457Z,97445.28
2023-01-27T01:18:39.868Z,97470.72
2023-01-27T01:21:07.254Z,97454.16
2023-01-27T01:23:35.339Z,97451.94
2023-01-27T01:26:02.307Z,97449.47
2023-01-27T01:28:29.358Z,97440.00
2023-01-27T01:30:56.891Z,97449.66
2023-01-27T01:33:23.928Z,97437.66
2023-01-27T01:35:50.887Z,97431.28
2023-01-27T01:38:17.783Z,97420.50
2023-01-27T01:40:45.261Z,97410.00
2023-01-27T01:43:17.373Z,97419.59
2023-01-27T01:45:51.506Z,97405.38
2023-01-27T01:48:24.464Z,97414.09
2023-01-27T01:51:20.472Z,97395.41
2023-01-27T01:54:12.141Z,97407.81
2023-01-27T01:56:43.360Z,97402.22
2023-01-27T01:59:16.273Z,97409.81
2023-01-27T02:01:43.222Z,97401.69
2023-01-27T02:04:18.183Z,97406.78
2023-01-27T02:06:54.779Z,97399.63
2023-01-27T02:09:22.320Z,97392.91
2023-01-27T02:11:50.099Z,97393.38
2023-01-27T02:14:18.351Z,97388.56
2023-01-27T02:16:45.418Z,97392.03
2023-01-27T02:19:24.759Z,97379.00
2023-01-27T02:21:55.443Z,97376.97
2023-01-27T02:24:31.186Z,97374.25
2023-01-27T02:27:00.685Z,97378.72
2023-01-27T02:29:28.997Z,97358.84
2023-01-27T02:31:55.998Z,97351.31
2023-01-27T02:34:27.648Z,97338.97
2023-01-27T02:36:58.465Z,97332.78
2023-01-27T02:39:31.362Z,97322.91
2023-01-27T02:41:59.254Z,97307.25
2023-01-27T02:44:26.406Z,97302.16
2023-01-27T02:46:53.345Z,97301.44
2023-01-27T02:49:20.332Z,97273.47
2023-01-27T02:51:47.299Z,97269.06
2023-01-27T02:54:14.381Z,97284.44
2023-01-27T02:56:41.976Z,97283.19
2023-01-27T02:59:09.881Z,97291.91
2023-01-27T03:01:39.705Z,97301.41
2023-01-27T03:04:08.793Z,97291.84
2023-01-27T03:06:35.850Z,97292.28
2023-01-27T03:09:04.073Z,97296.09
2023-01-27T03:11:49.621Z,97284.16
2023-01-27T03:14:18.162Z,97276.63
2023-01-27T03:17:06.063Z,97276.63
2023-01-27T03:19:33.154Z,97272.78
2023-01-27T03:22:01.950Z,97253.16
2023-01-27T03:24:31.111Z,97238.91
2023-01-27T03:27:02.529Z,97217.34
2023-01-27T03:29:55.954Z,97199.75
2023-01-27T03:32:25.376Z,97208.53
2023-01-27T03:35:12.500Z,97207.56
2023-01-27T03:37:59.671Z,97198.91
2023-01-27T03:40:46.117Z,97200.88
2023-01-27T03:43:31.926Z,97185.91
2023-01-27T03:46:18.511Z,97197.69
2023-01-27T03:48:54.205Z,97212.53
2023-01-27T03:51:24.571Z,97239.56
2023-01-27T03:53:51.827Z,97223.13
2023-01-27T03:56:20.870Z,97228.31
2023-01-27T03:58:49.566Z,97249.44
2023-01-27T04:01:23.149Z,97247.13
2023-01-27T04:04:10.132Z,97268.13
2023-01-27T04:06:58.425Z,97276.38
2023-01-27T04:09:31.255Z,97262.38
2023-01-27T04:12:00.841Z,97272.53
2023-01-27T04:14:32.031Z,97264.53
2023-01-27T04:17:05.711Z,97265.13
2023-01-27T04:19:33.781Z,97247.81
2023-01-27T04:22:02.092Z,97256.91
2023-01-27T04:24:29.232Z,97260.59
2023-01-27T04:27:06.322Z,97248.50
2023-01-27T04:29:35.328Z,97251.13
2023-01-27T04:32:04.583Z,97243.00
2023-01-27T04:34:31.907Z,97242.34
2023-01-27T04:36:59.236Z,97231.91
2023-01-27T04:39:26.530Z,97226.56
2023-01-27T04:41:53.394Z,97233.97
2023-01-27T04:44:23.072Z,97237.38
2023-01-27T04:46:50.601Z,97236.41
2023-01-27T04:49:18.506Z,97251.13
2023-01-27T04:51:47.089Z,97237.53
2023-01-27T04:54:15.475Z,97241.41
2023-01-27T04:56:54.439Z,97249.78
2023-01-27T04:59:21.381Z,97248.97
2023-01-27T05:01:48.580Z,97238.13
2023-01-27T05:04:15.492Z,97245.50
2023-01-27T05:06:42.414Z,97242.53
2023-01-27T05:09:09.345Z,97235.94
2023-01-27T05:11:36.261Z,97229.34
2023-01-27T05:14:03.299Z,97239.34
2023-01-27T05:16:30.388Z,97226.44
2023-01-27T05:18:57.543Z,97213.38
2023-01-27T05:21:28.417Z,97207.38
2023-01-27T05:23:55.612Z,97200.47
2023-01-27T05:26:25.672Z,97194.75
2023-01-27T05:28:53.534Z,97210.41
2023-01-27T05:31:23.559Z,97209.84
2023-01-27T05:33:55.458Z,97210.38
2023-01-27T05:36:24.087Z,97205.00
2023-01-27T05:38:51.156Z,97203.75
2023-01-27T05:41:19.730Z,97196.91
2023-01-27T05:43:47.886Z,97191.53
2023-01-27T05:46:17.709Z,97191.28
2023-01-27T05:48:47.104Z,97188.66
2023-01-27T05:51:15.463Z,97195.66
2023-01-27T05:53:43.324Z,97203.09
2023-01-27T05:56:11.979Z,97197.31
2023-01-27T05:58:39.788Z,97201.41
2023-01-27T06:01:11.203Z,97202.22
2023-01-27T06:03:39.036Z,97208.00
2023-01-27T06:06:08.053Z,97192.09
2023-01-27T06:08:35.539Z,97186.31
2023-01-27T06:11:03.106Z,97185.66
2023-01-27T06:13:30.359Z,97194.28
2023-01-27T06:15:57.438Z,97186.06
2023-01-27T06:18:24.759Z,97183.44
2023-01-27T06:20:51.701Z,97195.13
2023-01-27T06:23:18.757Z,97185.91
2023-01-27T06:25:48.386Z,97190.72
2023-01-27T06:28:28.150Z,97187.59
2023-01-27T06:30:57.368Z,97179.19
2023-01-27T06:33:24.285Z,97166.25
2023-01-27T06:35:51.272Z,97169.25
2023-01-27T06:38:18.211Z,97169.19
2023-01-27T06:40:45.127Z,97171.28
2023-01-27T06:43:14.742Z,97156.63
2023-01-27T06:45:41.844Z,97167.28
2023-01-27T06:48:09.165Z,97156.03
2023-01-27T06:50:37.172Z,97167.28
2023-01-27T06:53:06.383Z,97151.19
2023-01-27T06:55:34.545Z,97154.72
2023-01-27T06:58:02.564Z,97156.41
2023-01-27T07:00:30.145Z,97179.97
2023-01-27T07:02:57.324Z,97168.38
2023-01-27T07:05:24.964Z,97174.00
2023-01-27T07:07:51.889Z,97171.19
2023-01-27T07:10:19.405Z,97176.84
2023-01-27T07:12:46.649Z,97179.47
2023-01-27T07:15:14.631Z,97166.38
2023-01-27T07:17:41.612Z,97168.66
2023-01-27T07:20:11.999Z,97155.47
2023-01-27T07:22:39.544Z,97147.69
2023-01-27T07:25:07.123Z,97149.53
2023-01-27T07:27:34.038Z,97154.56
2023-01-27T07:30:01.038Z,97154.56
2023-01-27T07:32:28.608Z,97150.81
2023-01-27T07:34:55.684Z,97148.63
2023-01-27T07:37:22.622Z,97146.13
2023-01-27T07:39:49.762Z,97153.47
2023-01-27T07:42:16.736Z,97149.72
2023-01-27T07:44:43.696Z,97138.69
2023-01-27T07:47:10.618Z,97143.72
2023-01-27T07:49:37.532Z,97152.25
2023-01-27T07:52:04.630Z,97143.50
2023-01-27T07:54:31.742Z,97144.19
2023-01-27T07:57:01.749Z,97150.66
2023-01-27T07:59:28.768Z,97142.56
2023-01-27T08:01:55.870Z,97130.63
2023-01-27T08:04:22.877Z,97136.28
2023-01-27T08:06:49.955Z,97143.88
2023-01-27T08:09:16.985Z,97141.78
2023-01-27T08:11:43.941Z,97133.56
2023-01-27T08:14:10.896Z,97131.28
2023-01-27T08:16:37.848Z,97145.22
2023-01-27T08:19:04.874Z,97139.16
2023-01-27T08:21:33.280Z,97129.38
2023-01-27T08:24:00.914Z,97125.03
2023-01-27T08:26:28.441Z,97125.78
2023-01-27T08:28:55.687Z,97116.53
2023-01-27T08:31:22.742Z,97125.63
2023-01-27T08:33:54.517Z,97113.63
2023-01-27T08:36:23.404Z,97100.69
2023-01-27T08:38:51.262Z,97091.56
2023-01-27T08:41:21.373Z,97073.72
2023-01-27T08:43:48.728Z,97073.38
2023-01-27T08:46:16.039Z,97062.38
2023-01-27T08:48:43.250Z,97058.34
2023-01-27T08:51:13.128Z,97057.94
2023-01-27T08:53:40.427Z,97055.78
2023-01-27T08:56:11.252Z,97054.75
2023-01-27T08:58:38.290Z,97048.72
2023-01-27T09:01:07.479Z,97048.63
2023-01-27T09:03:35.235Z,97056.91
2023-01-27T09:06:05.325Z,97046.94
2023-01-27T09:08:32.382Z,97050.97
2023-01-27T09:11:00.021Z,97051.69
2023-01-27T09:13:28.457Z,97044.31
2023-01-27T09:15:55.716Z,97039.63
2023-01-27T09:18:22.750Z,97024.13
2023-01-27T09:20:49.760Z,97007.16
2023-01-27T09:23:16.650Z,97012.03
2023-01-27T09:25:43.815Z,97008.13
2023-01-27T09:28:17.160Z,97000.22
2023-01-27T09:30:48.435Z,97003.09
2023-01-27T09:33:15.949Z,96988.84
2023-01-27T09:35:48.878Z,96981.03
2023-01-27T09:38:20.968Z,96987.09
2023-01-27T09:40:47.817Z,96988.16
2023-01-27T09:43:39.254Z,96989.31
2023-01-27T10:18:27.513Z,97039.19
2023-01-27T10:21:01.384Z,97031.44
2023-01-27T10:23:57.622Z,97032.50
2023-01-27T10:26:41.284Z,97043.09
2023-01-27T10:29:35.333Z,97018.53
2023-01-27T10:32:48.801Z,97006.88
2023-01-27T10:35:25.567Z,96987.06
2023-01-27T10:38:10.205Z,96964.34
2023-01-27T10:40:45.950Z,96950.41
2023-01-27T10:43:16.797Z,96956.38
2023-01-27T10:45:50.888Z,96952.84
2023-01-27T10:48:46.101Z,96957.13
2023-01-27T10:51:29.024Z,96946.13
2023-01-27T10:54:04.405Z,96928.28
2023-01-27T10:56:46.346Z,96916.13
2023-01-27T10:59:36.994Z,96909.28
2023-01-27T11:02:09.670Z,96894.63
2023-01-27T11:04:41.553Z,96889.00
2023-01-27T11:07:15.185Z,96883.00
2023-01-27T11:09:57.956Z,96877.25
2023-01-27T11:12:55.909Z,96872.88
2023-01-27T11:15:30.596Z,96863.63
2023-01-27T11:17:59.730Z,96866.41
2023-01-27T11:20:35.228Z,96868.03
2023-01-27T11:23:15.000Z,96850.22
2023-01-27T11:25:47.483Z,96827.78
2023-01-27T11:28:51.189Z,96803.38
2023-01-27T11:31:51.498Z,96800.47
2023-01-27T11:34:33.677Z,96805.03
2023-01-27T11:37:22.343Z,96801.78
2023-01-27T11:39:49.613Z,96801.81
2023-01-27T11:42:17.262Z,96797.41
2023-01-27T11:44:45.641Z,96796.22
2023-01-27T11:47:23.349Z,96789.72
2023-01-27T11:49:52.966Z,96784.78
2023-01-27T11:52:22.472Z,96783.16
2023-01-27T11:55:01.882Z,96783.97
2023-01-27T11:57:29.615Z,96772.88
2023-01-27T12:00:29.258Z,96772.22
2023-01-27T12:03:48.836Z,96779.25
2023-01-27T12:06:40.919Z,96782.81
2023-01-27T12:09:39.498Z,96773.16
2023-01-27T12:12:11.438Z,96774.78
2023-01-27T12:14:38.464Z,96771.06
2023-01-27T12:17:08.136Z,96775.78
2023-01-27T12:19:42.763Z,96779.09
2023-01-27T12:22:31.310Z,96777.91
2023-01-27T12:25:02.907Z,96779.75
2023-01-27T12:27:38.668Z,96789.19
2023-01-27T12:30:17.456Z,96784.66
2023-01-27T12:32:47.394Z,96783.53
2023-01-27T12:35:21.840Z,96774.38
2023-01-27T12:37:50.303Z,96783.56
2023-01-27T12:40:22.415Z,96771.63
2023-01-27T12:43:02.983Z,96782.28
2023-01-27T12:45:35.086Z,96778.38
2023-01-27T12:48:07.725Z,96782.47
2023-01-27T12:50:37.750Z,96794.75
2023-01-27T12:53:06.094Z,96800.63
2023-01-27T12:55:55.356Z,96811.06
2023-01-27T12:58:28.232Z,96810.78
2023-01-27T13:00:57.730Z,96814.34
2023-01-27T13:03:25.452Z,96824.78
2023-01-27T13:05:58.065Z,96823.97
2023-01-27T13:08:27.978Z,96831.19
2023-01-27T13:11:00.752Z,96842.06
2023-01-27T13:13:30.838Z,96844.16
2023-01-27T13:16:03.696Z,96842.41
2023-01-27T13:18:34.906Z,96837.63
2023-01-27T13:21:24.810Z,96832.19
2023-01-27T13:23:54.030Z,96834.03
2023-01-27T13:26:29.318Z,96843.69
2023-01-27T13:29:30.576Z,96848.47
2023-01-27T13:32:21.020Z,96841.34
2023-01-27T13:34:57.713Z,96840.25
2023-01-27T13:37:29.140Z,96831.09
2023-01-27T13:40:20.767Z,96835.84
2023-01-27T13:42:59.805Z,96832.34
2023-01-27T13:45:43.375Z,96824.56
2023-01-27T13:48:22.545Z,96825.03
2023-01-27T13:51:33.716Z,96823.72
2023-01-27T13:54:04.937Z,96808.63
2023-01-27T13:56:58.636Z,96809.16
2023-01-27T13:59:33.226Z,96817.50
2023-01-27T14:02:30.493Z,96822.41
2023-01-27T14:05:09.139Z,96815.69
2023-01-27T14:07:38.948Z,96812.75
2023-01-27T14:10:24.609Z,96818.97
2023-01-27T14:13:15.321Z,96816.50
2023-01-27T14:16:03.667Z,96825.69
2023-01-27T14:19:17.251Z,96816.84
2023-01-27T14:22:19.338Z,96824.69
2023-01-27T14:24:53.257Z,96822.72
2023-01-27T14:27:38.774Z,96820.94
2023-01-27T14:30:20.335Z,96814.03
2023-01-27T14:33:05.941Z,96815.34
2023-01-27T14:35:39.006Z,96815.19
2023-01-27T14:38:09.085Z,96819.63
2023-01-27T14:40:38.696Z,96819.63
2023-01-27T14:43:36.617Z,96818.97
2023-01-27T14:46:15.316Z,96818.00
2023-01-27T14:49:11.782Z,96825.19
2023-01-27T14:52:00.329Z,96822.56
2023-01-27T14:54:48.395Z,96833.72
2023-01-27T14:57:47.873Z,96830.09
2023-01-27T15:00:21.484Z,96830.25
2023-01-27T15:03:34.952Z,96832.91
2023-01-27T15:06:29.798Z,96848.28
2023-01-27T15:09:09.080Z,96846.00
2023-01-27T15:12:00.295Z,96844.84
2023-01-27T15:14:57.879Z,96846.66
2023-01-27T15:17:36.306Z,96844.53
2023-01-27T15:20:26.977Z,96847.44
2023-01-27T15:23:31.869Z,96856.97
2023-01-27T15:26:02.693Z,96856.28
2023-01-27T15:28:32.878Z,96856.88
2023-01-27T15:31:15.016Z,96871.19
2023-01-27T15:33:49.461Z,96867.16
2023-01-27T15:36:32.239Z,96879.06
2023-01-27T15:39:11.465Z,96877.78
2023-01-27T15:42:01.479Z,96883.94
2023-01-27T15:44:32.714Z,96895.13
2023-01-27T15:47:14.831Z,96891.19
2023-01-27T15:49:46.947Z,96891.94
2023-01-27T15:52:53.752Z,96893.78
2023-01-27T15:55:47.637Z,96904.13
2023-01-27T15:58:42.687Z,96893.91
2023-01-27T16:01:29.769Z,96898.03
2023-01-27T16:04:08.081Z,96895.06
2023-01-27T16:06:35.743Z,96897.34
2023-01-27T16:09:08.382Z,96896.22
2023-01-27T16:11:35.380Z,96901.50
2023-01-27T16:14:22.800Z,96905.59
2023-01-27T16:16:52.678Z,96903.59
2023-01-27T16:19:28.828Z,96905.88
2023-01-27T16:22:01.602Z,96906.69
2023-01-27T16:25:03.472Z,96910.91
2023-01-27T16:28:05.882Z,96920.75
2023-01-27T16:30:42.584Z,96918.84
2023-01-27T16:33:26.808Z,96936.78
2023-01-27T16:36:16.963Z,96933.88
2023-01-27T16:38:45.768Z,96939.94
2023-01-27T16:41:20.493Z,96940.09
2023-01-27T16:44:19.159Z,96945.25
2023-01-27T16:46:50.530Z,96939.63
2023-01-27T16:49:24.324Z,96944.00
2023-01-27T16:52:03.968Z,96941.53
2023-01-27T16:54:45.649Z,96941.19
2023-01-27T16:57:35.784Z,96942.38
2023-01-27T17:00:20.238Z,96949.78
2023-01-27T17:02:48.259Z,96948.59
2023-01-27T17:05:17.570Z,96945.41
2023-01-27T17:08:15.084Z,96949.94
2023-01-27T17:10:43.919Z,96952.22
2023-01-27T17:13:33.585Z,96950.78
2023-01-27T17:16:04.446Z,96943.34
2023-01-27T17:18:51.680Z,96946.31
2023-01-27T17:21:41.178Z,96948.06
2023-01-27T17:24:16.407Z,96953.03
2023-01-27T17:26:47.801Z,96965.19
2023-01-27T17:29:20.759Z,96956.59
2023-01-27T17:31:48.520Z,96961.28
2023-01-27T17:34:19.579Z,96966.81
2023-01-27T17:37:18.264Z,96974.81
2023-01-27T17:39:46.176Z,96986.13
2023-01-27T17:42:17.048Z,96976.00
2023-01-27T17:44:45.316Z,96966.56
2023-01-27T17:47:15.844Z,96983.03
2023-01-27T17:49:44.088Z,96987.75
2023-01-27T17:52:17.596Z,96978.81
2023-01-27T17:54:46.997Z,96980.81
2023-01-27T17:57:32.784Z,96975.16
2023-01-27T18:00:09.831Z,96975.50
2023-01-27T18:02:55.125Z,96977.25
2023-01-27T18:05:26.313Z,96973.38
2023-01-27T18:07:53.735Z,96966.53
2023-01-27T18:10:26.611Z,96970.31
2023-01-27T18:12:55.095Z,96971.22
2023-01-27T18:15:37.393Z,96972.97
2023-01-27T18:18:08.515Z,96980.28
2023-01-27T18:20:36.503Z,96969.34
2023-01-27T18:23:06.805Z,96971.94
2023-01-27T18:25:33.788Z,96978.28
2023-01-27T18:28:00.815Z,96978.28
2023-01-27T18:30:27.724Z,96981.69
2023-01-27T18:33:03.535Z,96983.91
2023-01-27T18:35:32.851Z,96983.91
2023-01-27T18:38:02.521Z,96985.44
2023-01-27T18:40:35.488Z,96983.44
2023-01-27T18:43:05.661Z,96982.97
2023-01-27T18:45:32.632Z,96989.66
2023-01-27T18:47:59.941Z,96992.06
2023-01-27T18:50:28.110Z,96991.13
2023-01-27T18:52:55.615Z,96988.56
2023-01-27T18:55:30.361Z,96994.81
2023-01-27T18:57:59.453Z,96993.88
2023-01-27T19:00:40.601Z,96998.69
2023-01-27T19:03:13.961Z,96993.97
2023-01-27T19:05:41.057Z,96984.06
2023-01-27T19:08:14.859Z,96995.94
2023-01-27T19:10:41.977Z,97003.38
2023-01-27T19:13:09.694Z,97002.22
2023-01-27T19:15:48.453Z,97006.94
2023-01-27T19:18:44.730Z,96994.09
2023-01-27T19:21:13.995Z,96997.03
2023-01-27T19:23:45.012Z,97005.66
2023-01-27T19:26:17.806Z,97001.81
2023-01-27T19:28:49.138Z,97000.88
2023-01-27T19:31:16.310Z,97002.50
2023-01-27T19:33:45.103Z,97019.53
2023-01-27T19:36:25.432Z,97021.84
2023-01-27T19:39:14.687Z,97022.91
2023-01-27T19:41:42.226Z,97024.06
2023-01-27T19:44:10.742Z,97033.16
2023-01-27T19:46:39.733Z,97033.38
2023-01-27T19:49:07.709Z,97034.78
2023-01-27T19:51:34.601Z,97039.47
2023-01-27T19:54:01.489Z,97036.31
2023-01-27T19:56:30.836Z,97039.09
2023-01-27T19:58:57.751Z,97033.09
2023-01-27T20:01:25.689Z,97037.22
2023-01-27T20:03:53.817Z,97028.75
2023-01-27T20:06:28.764Z,97022.25
2023-01-27T20:08:59.096Z,97020.72
2023-01-27T20:11:33.938Z,97024.97
2023-01-27T20:14:02.760Z,97027.94
2023-01-27T20:16:30.512Z,97027.56
2023-01-27T20:18:58.314Z,97033.66
2023-01-27T20:21:25.513Z,97032.72
2023-01-27T20:23:52.746Z,97039.75
2023-01-27T20:26:22.376Z,97041.00
2023-01-27T20:28:50.354Z,97036.78
2023-01-27T20:31:22.659Z,97035.63
2023-01-27T20:33:50.381Z,97029.63
2023-01-27T20:36:23.924Z,97024.47
2023-01-27T20:38:52.238Z,97026.75
2023-01-27T20:41:22.070Z,97027.19
2023-01-27T20:43:49.167Z,97033.31
2023-01-27T20:46:18.193Z,97028.63
2023-01-27T20:48:45.139Z,97022.31
2023-01-27T20:51:15.425Z,97019.63
2023-01-27T20:53:47.178Z,97028.44
2023-01-27T20:56:19.379Z,97028.47
2023-01-27T20:58:46.899Z,97025.88
2023-01-27T21:01:16.542Z,97030.03
2023-01-27T21:03:43.879Z,97028.97
2023-01-27T21:06:12.549Z,97024.53
2023-01-27T21:08:39.973Z,97036.50
2023-01-27T21:11:10.999Z,97033.63
2023-01-27T21:13:38.022Z,97037.88
2023-01-27T21:16:05.191Z,97034.44
2023-01-27T21:18:32.067Z,97052.25
2023-01-27T21:21:04.163Z,97038.28
2023-01-27T21:23:34.926Z,97040.03
2023-01-27T21:26:09.261Z,97042.50
2023-01-27T21:28:36.257Z,97033.53
2023-01-27T21:31:08.091Z,97037.97
2023-01-27T21:33:36.441Z,97036.13
2023-01-27T21:36:04.844Z,97036.41
2023-01-27T21:38:34.807Z,97040.63
2023-01-27T21:41:11.085Z,97033.81
2023-01-27T21:43:56.877Z,97045.41
2023-01-27T21:46:24.012Z,97040.56
2023-01-27T21:48:51.286Z,97033.88
2023-01-27T21:51:18.194Z,97039.75
2023-01-27T21:53:45.124Z,97041.50
2023-01-27T21:56:12.119Z,97036.56
2023-01-27T21:58:39.176Z,97037.38
2023-01-27T22:01:07.821Z,97038.28
2023-01-27T22:03:36.045Z,97042.56
2023-01-27T22:06:10.026Z,97046.16
2023-01-27T22:08:37.403Z,97035.81
2023-01-27T22:11:05.770Z,97038.22
2023-01-27T22:13:33.407Z,97036.88
2023-01-27T22:16:01.575Z,97041.44
2023-01-27T22:18:29.079Z,97039.56
2023-01-27T22:20:56.448Z,97043.81
2023-01-27T22:23:24.677Z,97045.47
2023-01-27T22:25:52.749Z,97045.16
2023-01-27T22:28:20.507Z,97036.44
2023-01-27T22:30:47.421Z,97030.47
2023-01-27T22:33:14.487Z,97039.97
2023-01-27T22:35:41.427Z,97036.34
2023-01-27T22:38:08.608Z,97048.13
2023-01-27T22:40:35.606Z,97047.81
2023-01-27T22:43:09.324Z,97038.47
2023-01-27T22:45:40.144Z,97041.06
2023-01-27T22:48:08.987Z,97034.44
2023-01-27T22:50:36.950Z,97032.59
2023-01-27T22:53:05.528Z,97039.41
2023-01-27T22:55:32.831Z,97044.47
2023-01-27T22:57:59.923Z,97037.66
2023-01-27T23:00:27.044Z,97037.97
2023-01-27T23:02:54.448Z,97039.16
2023-01-27T23:05:21.435Z,97029.72
2023-01-27T23:07:48.379Z,97039.25
2023-01-27T23:10:16.006Z,97030.53
2023-01-27T23:12:42.963Z,97029.50
2023-01-27T23:15:10.326Z,97033.88
2023-01-27T23:17:37.287Z,97027.88
2023-01-27T23:20:04.672Z,97027.88
2023-01-27T23:22:31.630Z,97032.22
2023-01-27T23:24:58.523Z,97039.75
2023-01-27T23:27:26.433Z,97034.06
2023-01-27T23:29:53.548Z,97030.47
2023-01-27T23:32:20.456Z,97038.66
2023-01-27T23:34:48.335Z,97028.38
2023-01-27T23:37:15.288Z,97018.03
2023-01-27T23:39:46.018Z,97034.72
2023-01-27T23:42:12.948Z,97036.38
2023-01-27T23:44:39.912Z,97040.94
2023-01-27T23:47:06.897Z,97044.44
2023-01-27T23:49:33.845Z,97036.41
2023-01-27T23:52:00.764Z,97038.19
2023-01-27T23:54:27.679Z,97045.13
2023-01-27T23:56:54.659Z,97046.25
2023-01-27T23:59:21.566Z,97055.56
